createdAt,value
2022-10-18T00:01:29.723Z,55.55
2022-10-18T00:06:22.497Z,55.54
2022-10-18T00:11:15.327Z,55.56
2022-10-18T00:16:08.052Z,55.49
2022-10-18T00:21:00.690Z,55.43
2022-10-18T00:25:52.810Z,55.46
2022-10-18T00:30:45.523Z,55.46
2022-10-18T00:35:38.014Z,55.43
2022-10-18T00:40:30.818Z,55.56
2022-10-18T00:45:23.647Z,55.54
2022-10-18T00:50:16.253Z,55.48
2022-10-18T00:55:08.955Z,55.61
2022-10-18T01:00:03.319Z,55.5
2022-10-18T01:04:55.660Z,55.48
2022-10-18T01:09:48.218Z,55.5
2022-10-18T01:14:40.746Z,55.53
2022-10-18T01:19:33.428Z,55.53
2022-10-18T01:24:26.083Z,55.54
2022-10-18T01:29:18.685Z,55.55
2022-10-18T01:34:11.266Z,55.56
2022-10-18T01:39:03.950Z,55.58
2022-10-18T01:43:56.626Z,55.56
2022-10-18T01:48:49.130Z,55.57
2022-10-18T01:53:41.727Z,55.71
2022-10-18T01:58:34.352Z,55.74
2022-10-18T02:03:26.988Z,55.76
2022-10-18T02:08:23.055Z,55.67
2022-10-18T02:13:12.498Z,55.69
2022-10-18T02:18:04.843Z,55.74
2022-10-18T02:22:57.537Z,55.68
2022-10-18T02:27:50.104Z,55.67
2022-10-18T02:32:42.663Z,55.65
2022-10-18T02:37:35.249Z,55.66
2022-10-18T02:42:27.567Z,55.67
2022-10-18T02:47:20.241Z,55.7
2022-10-18T02:52:12.967Z,55.76
2022-10-18T02:57:05.618Z,55.69
2022-10-18T03:01:58.200Z,55.73
2022-10-18T03:06:50.840Z,55.72
2022-10-18T03:11:43.676Z,55.72
2022-10-18T03:16:36.320Z,55.74
2022-10-18T03:21:28.938Z,55.74
2022-10-18T03:26:21.419Z,55.71
2022-10-18T03:31:14.135Z,55.8
2022-10-18T03:36:06.681Z,55.8
2022-10-18T03:40:59.313Z,55.82
2022-10-18T03:45:51.919Z,55.83
2022-10-18T03:50:44.490Z,55.78
2022-10-18T03:55:37.238Z,55.91
2022-10-18T04:00:29.735Z,56.02
2022-10-18T04:05:22.410Z,56.04
2022-10-18T04:10:15.012Z,56.05
2022-10-18T04:15:07.890Z,55.97
2022-10-18T04:20:00.571Z,56.08
2022-10-18T04:24:53.239Z,56.14
2022-10-18T04:29:46.073Z,56.1
2022-10-18T04:34:38.797Z,56.07
2022-10-18T04:39:31.239Z,56.32
2022-10-18T04:44:23.909Z,56.84
2022-10-18T04:49:16.988Z,57.73
2022-10-18T04:54:09.702Z,57.64
2022-10-18T04:59:02.480Z,57.17
2022-10-18T05:03:55.320Z,56.95
2022-10-18T05:08:48.078Z,56.6
2022-10-18T05:13:40.923Z,57.6
2022-10-18T05:18:33.568Z,56.5
2022-10-18T05:23:26.168Z,57.47
2022-10-18T05:28:38.508Z,56.54
2022-10-18T05:38:04.255Z,57.36
2022-10-18T05:47:50.044Z,56.66
2022-10-18T05:57:35.528Z,58.12
2022-10-18T06:02:27.667Z,56.01
2022-10-18T06:07:20.038Z,55.91
2022-10-18T06:12:12.654Z,55.91
2022-10-18T06:17:05.042Z,55.75
2022-10-18T06:21:57.671Z,55.77
2022-10-18T06:26:50.349Z,56.09
2022-10-18T06:31:43.063Z,56.32
2022-10-18T06:36:35.617Z,56.26
2022-10-18T06:41:28.364Z,56.12
2022-10-18T06:46:20.980Z,56.12
2022-10-18T06:51:13.557Z,56.15
2022-10-18T06:56:06.281Z,56.09
2022-10-18T07:00:59.104Z,56.16
2022-10-18T07:05:51.634Z,56.14
2022-10-18T07:10:44.244Z,56.19
2022-10-18T07:15:36.963Z,56.09
2022-10-18T07:20:29.648Z,56.22
2022-10-18T07:25:23.197Z,56.23
2022-10-18T07:30:15.062Z,56.24
2022-10-18T07:35:07.681Z,56.19
2022-10-18T07:40:00.405Z,56.28
2022-10-18T07:44:52.968Z,56.29
2022-10-18T07:49:45.602Z,56.33
2022-10-18T07:54:38.280Z,56.4
2022-10-18T07:59:30.919Z,56.45
2022-10-18T08:04:23.914Z,56.5
2022-10-18T08:09:16.773Z,56.49
2022-10-18T08:14:09.388Z,56.49
2022-10-18T08:19:02.130Z,56.57
2022-10-18T08:23:54.189Z,56.62
2022-10-18T08:28:53.455Z,56.54
2022-10-18T08:33:39.624Z,56.55
2022-10-18T08:38:32.306Z,56.58
2022-10-18T08:43:25.060Z,56.63
2022-10-18T08:48:17.867Z,56.55
2022-10-18T08:53:10.563Z,56.59
2022-10-18T08:58:03.175Z,56.6
2022-10-18T09:02:55.425Z,56.64
2022-10-18T09:07:47.677Z,56.66
2022-10-18T09:12:40.279Z,56.61
2022-10-18T09:17:32.848Z,56.61
2022-10-18T09:22:25.427Z,56.65
2022-10-18T09:27:18.085Z,56.56
2022-10-18T09:32:10.608Z,56.61
2022-10-18T09:37:03.326Z,56.59
2022-10-18T09:41:56.061Z,56.62
2022-10-18T09:46:48.814Z,56.64
2022-10-18T09:51:41.493Z,56.61
2022-10-18T09:56:37.891Z,56.64
2022-10-18T10:01:26.819Z,56.6
2022-10-18T10:06:19.540Z,56.64
2022-10-18T10:11:12.126Z,56.63
2022-10-18T10:16:04.810Z,56.62
2022-10-18T10:20:57.521Z,56.55
2022-10-18T10:25:50.293Z,56.61
2022-10-18T10:30:42.649Z,56.61
2022-10-18T10:35:53.319Z,56.63
2022-10-18T10:40:28.753Z,56.67
2022-10-18T10:45:20.632Z,56.73
2022-10-18T10:50:13.793Z,56.7
2022-10-18T10:55:23.504Z,56.71
2022-10-18T10:59:58.826Z,56.66
2022-10-18T11:04:51.554Z,56.67
2022-10-18T11:09:44.402Z,56.76
2022-10-18T11:14:36.893Z,56.76
2022-10-18T11:19:29.651Z,56.74
2022-10-18T11:24:22.372Z,56.76
2022-10-18T11:34:09.479Z,56.74
2022-10-18T11:44:02.083Z,56.77
2022-10-18T11:53:37.813Z,56.7
2022-10-18T11:58:30.576Z,56.76
2022-10-18T12:03:23.325Z,56.78
2022-10-18T12:08:16.049Z,56.77
2022-10-18T12:13:08.490Z,56.77
2022-10-18T12:18:01.236Z,56.77
2022-10-18T12:22:53.980Z,56.73
2022-10-18T12:27:46.644Z,56.69
2022-10-18T12:32:39.398Z,56.77
2022-10-18T12:37:32.429Z,56.73
2022-10-18T12:42:24.767Z,56.74
2022-10-18T12:47:17.304Z,56.77
2022-10-18T12:52:09.864Z,56.78
2022-10-18T12:57:02.325Z,56.77
2022-10-18T13:01:55.400Z,56.75
2022-10-18T13:06:47.768Z,56.74
2022-10-18T13:11:40.404Z,56.73
2022-10-18T13:16:33.099Z,56.8
2022-10-18T13:21:25.674Z,56.76
2022-10-18T13:26:18.283Z,56.73
2022-10-18T13:31:10.994Z,56.79
2022-10-18T13:36:03.528Z,56.76
2022-10-18T13:40:56.463Z,56.79
2022-10-18T13:45:49.144Z,56.79
2022-10-18T13:50:41.761Z,56.71
2022-10-18T13:55:34.333Z,56.74
2022-10-18T14:00:26.920Z,56.69
2022-10-18T14:05:24.440Z,56.49
2022-10-18T14:10:07.653Z,56.42
2022-10-18T14:15:01.472Z,56.66
2022-10-18T14:19:54.117Z,56.79
2022-10-18T14:24:40.785Z,56.85
2022-10-18T14:29:36.072Z,57.04
2022-10-18T14:34:23.173Z,57.09
2022-10-18T14:39:17.164Z,57.14
2022-10-18T14:44:10.510Z,57.23
2022-10-18T14:49:05.298Z,57.07
2022-10-18T14:53:57.659Z,56.99
2022-10-18T14:58:50.402Z,56.99
2022-10-18T15:03:42.973Z,56.9
2022-10-18T15:08:35.534Z,56.87
2022-10-18T15:13:22.417Z,56.82
2022-10-18T15:18:16.050Z,56.85
2022-10-18T15:23:09.573Z,57.02
2022-10-18T15:28:02.233Z,56.84
2022-10-18T15:32:56.927Z,56.79
2022-10-18T15:37:49.251Z,56.88
2022-10-18T15:42:42.181Z,56.78
2022-10-18T15:47:34.944Z,56.82
2022-10-18T15:52:21.854Z,56.8
2022-10-18T15:57:15.429Z,56.96
2022-10-18T16:02:09.270Z,57.16
2022-10-18T16:07:02.180Z,57.22
2022-10-18T16:11:57.167Z,57.27
2022-10-18T16:16:47.899Z,57.38
2022-10-18T16:21:40.515Z,57.33
2022-10-18T16:26:33.376Z,57.41
2022-10-18T16:31:26.134Z,57.45
2022-10-18T16:36:18.429Z,57.51
2022-10-18T16:41:11.165Z,57.48
2022-10-18T16:46:03.770Z,57.63
2022-10-18T16:50:56.353Z,57.67
2022-10-18T16:55:48.994Z,57.65
2022-10-18T17:00:41.656Z,57.64
2022-10-18T17:05:28.492Z,57.7
2022-10-18T17:10:22.194Z,57.73
2022-10-18T17:15:15.852Z,57.73
2022-10-18T17:20:08.593Z,57.7
2022-10-18T17:25:01.300Z,57.73
2022-10-18T17:29:53.759Z,57.75
2022-10-18T17:34:46.082Z,57.79
2022-10-18T17:39:38.675Z,57.8
2022-10-18T17:44:25.524Z,57.86
2022-10-18T17:49:19.213Z,57.83
2022-10-18T17:59:05.464Z,57.92
2022-10-18T18:08:50.808Z,57.94
2022-10-18T18:18:36.358Z,57.93
2022-10-18T18:23:29.133Z,57.95
2022-10-18T18:28:23.896Z,57.93
2022-10-18T18:33:16.378Z,58.03
2022-10-18T18:38:08.737Z,57.99
2022-10-18T18:43:12.312Z,58.03
2022-10-18T18:47:55.290Z,58.06
2022-10-18T18:52:46.897Z,58
2022-10-18T18:57:39.226Z,58.04
2022-10-18T19:02:31.775Z,58.08
2022-10-18T19:07:24.415Z,58.03
2022-10-18T19:12:19.113Z,58.12
2022-10-18T19:17:09.810Z,58.15
2022-10-18T19:22:02.289Z,58.11
2022-10-18T19:26:54.906Z,58.21
2022-10-18T19:31:47.547Z,58.24
2022-10-18T19:36:40.171Z,58.18
2022-10-18T19:41:32.932Z,58.15
2022-10-18T19:46:25.967Z,58.08
2022-10-18T19:51:20.968Z,58.05
2022-10-18T19:56:11.593Z,58.2
2022-10-18T20:01:04.364Z,58.07
2022-10-18T20:05:56.922Z,58.02
2022-10-18T20:10:49.588Z,57.97
2022-10-18T20:15:42.144Z,57.93
2022-10-18T20:20:34.791Z,57.87
2022-10-18T20:25:21.805Z,57.88
2022-10-18T20:30:15.300Z,57.91
2022-10-18T20:35:09.176Z,57.96
2022-10-18T20:40:03.788Z,58.1
2022-10-18T20:44:50.428Z,58.04
2022-10-18T20:49:43.938Z,58.08
2022-10-18T20:54:37.624Z,58.04
2022-10-18T20:59:30.128Z,58.01
2022-10-18T21:04:22.555Z,58.01
2022-10-18T21:09:15.259Z,57.97
2022-10-18T21:14:08.005Z,57.98
2022-10-18T21:19:00.183Z,58
2022-10-18T21:23:52.688Z,57.95
2022-10-18T21:28:45.508Z,57.96
2022-10-18T21:33:38.036Z,57.94
2022-10-18T21:38:30.559Z,57.92
2022-10-18T21:43:25.202Z,57.91
2022-10-18T21:48:17.272Z,57.92
2022-10-18T21:53:09.889Z,57.88
2022-10-18T21:58:02.449Z,57.87
2022-10-18T22:02:55.291Z,57.85
2022-10-18T22:07:47.783Z,57.83
2022-10-18T22:12:40.936Z,57.85
2022-10-18T22:17:33.651Z,57.86
2022-10-18T22:22:26.152Z,57.8
2022-10-18T22:27:18.785Z,57.75
2022-10-18T22:32:11.109Z,57.68
2022-10-18T22:37:03.542Z,57.7
2022-10-18T22:41:58.373Z,57.68
2022-10-18T22:46:50.640Z,57.66
2022-10-18T22:51:43.181Z,57.64
2022-10-18T22:56:35.687Z,57.67
2022-10-18T23:01:28.447Z,57.67
2022-10-18T23:06:20.999Z,57.63
2022-10-18T23:11:13.686Z,57.58
2022-10-18T23:16:06.395Z,57.54
2022-10-18T23:20:58.988Z,57.57
2022-10-18T23:25:51.738Z,57.56
2022-10-18T23:35:36.812Z,57.54
2022-10-18T23:45:24.170Z,57.52
2022-10-18T23:50:16.344Z,57.47
2022-10-18T23:55:08.583Z,57.48
